createdAt,value
2023-10-26T00:18:50.930Z,53.33
2023-10-26T01:50:32.446Z,57.53
2023-10-26T02:30:21.424Z,60.67
2023-10-26T02:50:38.343Z,57.33
2023-10-26T08:06:52.429Z,40.33
2023-10-26T08:27:38.177Z,31.10
2023-10-26T08:53:07.798Z,28.60
2023-10-26T09:13:09.861Z,31.93
2023-10-26T09:38:39.944Z,31.67
2023-10-26T10:03:33.819Z,34.80
2023-10-26T10:29:23.440Z,32.20
2023-10-26T10:59:37.566Z,32.33
2023-10-26T11:30:08.163Z,31.17
2023-10-26T11:55:24.135Z,29.60
2023-10-26T12:35:41.878Z,35.77
2023-10-26T12:56:28.217Z,33.87
2023-10-26T13:41:54.047Z,25.20
2023-10-26T13:52:00.313Z,21.50
2023-10-26T14:17:14.407Z,17.37
2023-10-26T15:08:02.625Z,21.20
2023-10-26T15:28:21.660Z,22.53
2023-10-26T15:58:12.290Z,17.43
2023-10-26T16:18:38.559Z,17.57
2023-10-26T16:38:54.296Z,18.93
2023-10-26T17:04:24.332Z,19.60
2023-10-26T17:19:50.229Z,17.67
2023-10-26T17:24:10.650Z,17.90
2023-10-26T17:54:38.750Z,18.00
2023-10-26T18:15:13.423Z,15.57
2023-10-26T18:40:44.584Z,15.93
2023-10-26T18:55:58.857Z,14.40
2023-10-26T19:35:49.843Z,12.37
2023-10-26T19:56:42.666Z,15.23
2023-10-26T20:06:38.014Z,15.53
2023-10-26T20:32:12.586Z,20.07
2023-10-26T21:06:57.193Z,24.67
2023-10-26T21:37:57.080Z,16.87
2023-10-26T22:08:16.908Z,17.80
2023-10-26T22:38:08.069Z,20.00
2023-10-26T22:58:50.543Z,19.00
2023-10-26T23:29:13.707Z,16.80
